Metar z połowy godziny Komunikat METAR ze strony awiacja.imgw.pl Metar G30 EPPW METAR EPPW 230800Z 10010KT 9999 OVC016 M05/M08 Q1008 RMK M052 078 8/8=